createdAt,value
2023-01-23T00:00:16.169Z,100085.09
2023-01-23T00:01:39.480Z,100089.79
2023-01-23T00:02:41.644Z,100091.88
2023-01-23T00:03:44.267Z,100092.41
2023-01-23T00:04:46.251Z,100093.44
2023-01-23T00:06:03.026Z,100095.31
2023-01-23T00:07:05.167Z,100097.13
2023-01-23T00:08:07.122Z,100098.33
2023-01-23T00:09:10.034Z,100100.00
2023-01-23T00:10:12.149Z,100099.40
2023-01-23T00:11:17.880Z,100102.88
2023-01-23T00:12:19.800Z,100103.21
2023-01-23T00:13:22.013Z,100099.37
2023-01-23T00:14:24.087Z,100100.04
2023-01-23T00:15:27.626Z,100097.40
2023-01-23T00:16:32.586Z,100098.99
2023-01-23T00:17:34.563Z,100098.73
2023-01-23T00:18:36.788Z,100097.57
2023-01-23T00:19:38.815Z,100100.09
2023-01-23T00:20:42.310Z,100099.11
2023-01-23T00:21:44.199Z,100102.65
2023-01-23T00:22:46.069Z,100102.95
2023-01-23T00:23:54.011Z,100109.92
2023-01-23T00:24:56.011Z,100109.39
2023-01-23T00:26:03.231Z,100112.15
2023-01-23T00:27:05.650Z,100115.00
2023-01-23T00:28:07.503Z,100115.39
2023-01-23T00:29:10.205Z,100114.04
2023-01-23T00:30:13.685Z,100115.65
2023-01-23T00:31:19.568Z,100114.56
2023-01-23T00:32:21.873Z,100114.03
2023-01-23T00:33:23.835Z,100111.02
2023-01-23T00:34:25.617Z,100113.42
2023-01-23T00:35:27.799Z,100117.34
2023-01-23T00:36:35.712Z,100122.48
2023-01-23T00:37:37.801Z,100124.05
2023-01-23T00:38:40.531Z,100126.27
2023-01-23T00:39:42.810Z,100127.10
2023-01-23T00:40:46.270Z,100126.77
2023-01-23T00:41:49.771Z,100129.98
2023-01-23T00:42:52.246Z,100132.25
2023-01-23T00:43:54.346Z,100135.17
2023-01-23T00:44:56.208Z,100137.30
2023-01-23T00:45:58.485Z,100136.08
2023-01-23T00:47:00.839Z,100139.28
2023-01-23T00:48:03.039Z,100136.50
2023-01-23T00:49:05.797Z,100136.96
2023-01-23T00:50:08.615Z,100133.55
2023-01-23T00:51:10.725Z,100134.17
2023-01-23T00:52:12.660Z,100134.57
2023-01-23T00:53:14.999Z,100135.96
2023-01-23T00:54:17.724Z,100133.11
2023-01-23T00:55:19.672Z,100135.58
2023-01-23T00:56:21.599Z,100136.73
2023-01-23T00:57:23.648Z,100135.54
2023-01-23T00:58:25.792Z,100137.20
2023-01-23T00:59:27.896Z,100132.87
2023-01-23T01:00:30.037Z,100134.70
2023-01-23T01:01:32.847Z,100128.89
2023-01-23T01:02:34.836Z,100127.77
2023-01-23T01:03:37.868Z,100126.79
2023-01-23T01:04:39.807Z,100128.64
2023-01-23T01:05:41.830Z,100128.65
2023-01-23T01:06:43.836Z,100127.92
2023-01-23T01:07:45.933Z,100127.46
2023-01-23T01:08:47.992Z,100128.85
2023-01-23T01:09:51.411Z,100131.05
2023-01-23T01:10:53.525Z,100133.28
2023-01-23T01:11:55.363Z,100132.45
2023-01-23T01:12:58.578Z,100137.70
2023-01-23T01:14:01.467Z,100137.57
2023-01-23T01:15:04.884Z,100136.03
2023-01-23T01:16:07.926Z,100135.91
2023-01-23T01:17:10.756Z,100139.31
2023-01-23T01:18:12.682Z,100137.19
2023-01-23T01:19:17.561Z,100137.96
2023-01-23T01:20:21.003Z,100137.83
2023-01-23T01:21:23.540Z,100136.08
2023-01-23T01:22:25.512Z,100135.21
2023-01-23T01:23:27.477Z,100134.42
2023-01-23T01:24:29.441Z,100129.80
2023-01-23T01:25:31.375Z,100134.96
2023-01-23T01:26:34.490Z,100136.21
2023-01-23T01:27:36.404Z,100139.90
2023-01-23T01:28:39.854Z,100138.60
2023-01-23T01:29:41.917Z,100140.83
2023-01-23T01:30:43.900Z,100144.23
2023-01-23T01:31:46.101Z,100149.73
2023-01-23T01:32:48.087Z,100148.70
2023-01-23T01:33:50.711Z,100153.05
2023-01-23T01:34:54.100Z,100153.17
2023-01-23T01:35:56.606Z,100157.27
2023-01-23T01:36:58.561Z,100159.23
2023-01-23T01:38:00.699Z,100161.65
2023-01-23T01:39:02.779Z,100162.89
2023-01-23T01:40:14.031Z,100164.95
2023-01-23T01:41:16.709Z,100164.75
2023-01-23T01:42:19.043Z,100162.03
2023-01-23T01:43:26.820Z,100167.10
2023-01-23T01:44:28.677Z,100170.73
2023-01-23T01:46:07.536Z,100169.70
2023-01-23T01:47:15.888Z,100171.88
2023-01-23T01:48:21.729Z,100169.13
2023-01-23T01:49:33.437Z,100170.30
2023-01-23T01:50:36.244Z,100168.64
2023-01-23T01:51:58.900Z,100168.60
2023-01-23T01:53:00.889Z,100164.63
2023-01-23T01:54:25.101Z,100166.46
2023-01-23T01:55:27.414Z,100167.64
2023-01-23T01:56:35.739Z,100168.50
2023-01-23T01:57:45.543Z,100170.05
2023-01-23T01:58:53.643Z,100169.27
2023-01-23T02:00:07.241Z,100166.84
2023-01-23T02:01:19.432Z,100166.48
2023-01-23T02:02:24.859Z,100163.46
2023-01-23T02:03:27.101Z,100157.77
2023-01-23T02:04:29.120Z,100157.85
2023-01-23T02:05:43.139Z,100156.45
2023-01-23T02:06:46.064Z,100161.64
2023-01-23T02:08:01.225Z,100160.20
2023-01-23T02:09:24.557Z,100164.92
2023-01-23T02:10:26.538Z,100161.90
2023-01-23T02:11:28.499Z,100158.80
2023-01-23T02:12:34.388Z,100156.95
2023-01-23T02:13:39.949Z,100155.33
2023-01-23T02:14:43.141Z,100156.18
2023-01-23T02:15:46.392Z,100160.31
2023-01-23T02:16:51.211Z,100164.49
2023-01-23T02:17:55.111Z,100167.27
2023-01-23T02:19:07.294Z,100171.89
2023-01-23T02:20:23.536Z,100169.70
2023-01-23T02:21:26.088Z,100176.02
2023-01-23T02:22:59.224Z,100175.81
2023-01-23T02:24:22.920Z,100181.53
2023-01-23T02:25:37.814Z,100185.12
2023-01-23T02:26:46.013Z,100186.98
2023-01-23T02:27:49.022Z,100185.48
2023-01-23T02:28:53.597Z,100190.16
2023-01-23T02:29:56.598Z,100195.14
2023-01-23T02:31:00.575Z,100198.00
2023-01-23T02:32:03.048Z,100203.25
2023-01-23T02:33:28.844Z,100201.05
2023-01-23T02:34:30.771Z,100197.51
2023-01-23T02:35:36.331Z,100196.17
2023-01-23T02:36:47.472Z,100189.89
2023-01-23T02:37:54.810Z,100189.90
2023-01-23T02:39:09.547Z,100192.92
2023-01-23T02:40:13.028Z,100196.05
2023-01-23T02:41:18.279Z,100200.13
2023-01-23T02:42:24.008Z,100201.16
2023-01-23T02:43:35.160Z,100199.73
2023-01-23T02:44:37.675Z,100201.05
2023-01-23T02:45:40.183Z,100200.36
2023-01-23T02:46:43.448Z,100203.18
2023-01-23T02:47:45.419Z,100203.12
2023-01-23T02:48:48.884Z,100202.42
2023-01-23T02:49:51.030Z,100199.63
2023-01-23T02:50:53.073Z,100201.19
2023-01-23T02:51:56.811Z,100203.58
2023-01-23T02:52:58.638Z,100198.52
2023-01-23T02:54:01.022Z,100199.36
2023-01-23T02:55:03.315Z,100204.58
2023-01-23T02:56:06.353Z,100204.43
2023-01-23T02:57:09.685Z,100207.77
2023-01-23T02:58:30.772Z,100211.71
2023-01-23T02:59:51.100Z,100216.15
2023-01-23T03:00:53.679Z,100217.67
2023-01-23T03:01:57.836Z,100219.54
2023-01-23T03:02:59.753Z,100217.73
2023-01-23T03:04:06.511Z,100220.07
2023-01-23T03:05:09.543Z,100221.75
2023-01-23T03:06:11.768Z,100223.06
2023-01-23T03:07:13.885Z,100226.84
2023-01-23T03:08:16.554Z,100227.41
2023-01-23T03:09:19.478Z,100226.64
2023-01-23T03:10:21.557Z,100223.38
2023-01-23T03:11:24.405Z,100228.23
2023-01-23T03:12:26.479Z,100223.52
2023-01-23T03:13:29.675Z,100225.45
2023-01-23T03:14:32.481Z,100226.38
2023-01-23T03:15:35.418Z,100233.11
2023-01-23T03:16:38.564Z,100232.39
2023-01-23T03:17:40.827Z,100231.52
2023-01-23T03:18:53.396Z,100230.52
2023-01-23T03:19:57.891Z,100231.39
2023-01-23T03:21:05.049Z,100231.95
2023-01-23T03:22:07.477Z,100232.75
2023-01-23T03:23:09.832Z,100228.27
2023-01-23T03:24:14.090Z,100231.79
2023-01-23T03:25:17.399Z,100230.66
2023-01-23T03:26:19.503Z,100233.09
2023-01-23T03:27:21.835Z,100230.47
2023-01-23T03:28:45.238Z,100228.17
2023-01-23T03:30:06.010Z,100228.41
2023-01-23T03:31:08.283Z,100227.83
2023-01-23T03:32:11.986Z,100228.50
2023-01-23T03:33:14.634Z,100231.92
2023-01-23T03:34:18.180Z,100227.70
2023-01-23T03:35:20.482Z,100228.77
2023-01-23T03:36:23.033Z,100227.51
2023-01-23T03:37:25.325Z,100228.96
2023-01-23T03:38:29.143Z,100226.48
2023-01-23T03:39:49.938Z,100227.53
2023-01-23T03:41:11.495Z,100225.62
2023-01-23T03:42:13.933Z,100224.26
2023-01-23T03:43:15.960Z,100220.39
2023-01-23T03:44:22.001Z,100216.84
2023-01-23T03:45:24.006Z,100214.91
2023-01-23T03:46:26.309Z,100213.21
2023-01-23T03:47:28.507Z,100216.37
2023-01-23T03:48:30.601Z,100216.23
2023-01-23T03:49:33.245Z,100217.53
2023-01-23T03:50:35.083Z,100224.62
2023-01-23T03:51:36.908Z,100228.27
2023-01-23T03:52:38.841Z,100226.51
2023-01-23T03:53:41.148Z,100228.42
2023-01-23T03:54:43.157Z,100225.67
2023-01-23T03:55:46.441Z,100225.93
2023-01-23T03:56:48.403Z,100225.67
2023-01-23T03:58:09.490Z,100224.58
2023-01-23T03:59:14.882Z,100224.55
2023-01-23T04:00:18.090Z,100222.84
2023-01-23T04:01:25.542Z,100221.13
2023-01-23T04:02:27.899Z,100223.24
2023-01-23T04:03:30.668Z,100221.40
2023-01-23T04:04:34.348Z,100226.11
2023-01-23T04:05:36.648Z,100227.60
2023-01-23T04:06:38.626Z,100229.77
2023-01-23T04:07:41.091Z,100222.73
2023-01-23T04:08:43.680Z,100223.70
2023-01-23T04:09:45.911Z,100219.06
2023-01-23T04:10:48.517Z,100220.29
2023-01-23T04:11:52.081Z,100215.41
2023-01-23T04:12:54.160Z,100213.48
2023-01-23T04:13:56.345Z,100210.63
2023-01-23T04:14:58.502Z,100215.70
2023-01-23T04:16:03.437Z,100213.35
2023-01-23T04:17:08.213Z,100213.15
2023-01-23T04:18:10.272Z,100212.89
2023-01-23T04:19:13.692Z,100211.73
2023-01-23T04:20:15.799Z,100216.51
2023-01-23T04:21:18.876Z,100214.29
2023-01-23T04:22:20.893Z,100212.15
2023-01-23T04:23:24.237Z,100212.56
2023-01-23T04:24:27.705Z,100211.13
2023-01-23T04:25:29.762Z,100212.89
2023-01-23T04:26:31.798Z,100209.27
2023-01-23T04:27:33.764Z,100212.11
2023-01-23T04:28:37.070Z,100215.94
2023-01-23T04:29:39.052Z,100217.64
2023-01-23T04:30:42.426Z,100219.80
2023-01-23T04:31:55.272Z,100222.79
2023-01-23T04:32:57.157Z,100222.35
2023-01-23T04:33:59.207Z,100224.05
2023-01-23T04:35:02.604Z,100225.67
2023-01-23T04:36:06.884Z,100226.60
2023-01-23T04:37:09.643Z,100228.70
2023-01-23T04:38:11.629Z,100226.55
2023-01-23T04:39:13.685Z,100228.00
2023-01-23T04:40:16.095Z,100229.10
2023-01-23T04:41:29.658Z,100226.14
2023-01-23T04:42:36.090Z,100231.16
2023-01-23T04:43:42.119Z,100231.55
2023-01-23T04:44:45.409Z,100232.73
2023-01-23T04:46:05.902Z,100231.78
2023-01-23T04:47:29.364Z,100233.52
2023-01-23T04:48:31.475Z,100232.59
2023-01-23T04:49:33.509Z,100236.23
2023-01-23T04:50:36.128Z,100235.31
2023-01-23T04:51:38.125Z,100234.95
2023-01-23T04:52:39.981Z,100235.38
2023-01-23T04:53:41.815Z,100237.97
2023-01-23T04:54:43.813Z,100236.94
2023-01-23T04:55:49.964Z,100238.10
2023-01-23T04:56:52.480Z,100241.32
2023-01-23T04:57:55.378Z,100243.88
2023-01-23T04:58:59.595Z,100245.10
2023-01-23T05:00:01.709Z,100245.98
2023-01-23T05:01:08.308Z,100244.05
2023-01-23T05:02:11.407Z,100245.27
2023-01-23T05:03:17.921Z,100244.28
2023-01-23T05:04:21.346Z,100245.14
2023-01-23T05:05:24.570Z,100247.84
2023-01-23T05:06:28.272Z,100246.61
2023-01-23T05:07:31.029Z,100246.89
2023-01-23T05:08:40.096Z,100248.05
2023-01-23T05:09:58.626Z,100252.83
2023-01-23T05:11:01.032Z,100247.60
2023-01-23T05:12:03.141Z,100254.02
2023-01-23T05:13:06.549Z,100252.85
2023-01-23T05:14:08.454Z,100251.19
2023-01-23T05:15:11.210Z,100251.20
2023-01-23T05:16:15.392Z,100251.52
2023-01-23T05:17:35.783Z,100251.59
2023-01-23T05:18:37.829Z,100253.69
2023-01-23T05:19:39.765Z,100256.18
2023-01-23T05:20:41.828Z,100259.05
2023-01-23T05:21:43.800Z,100262.98
2023-01-23T05:22:53.467Z,100262.02
2023-01-23T05:23:59.977Z,100264.52
2023-01-23T05:25:01.830Z,100264.45
2023-01-23T05:26:04.801Z,100264.68
2023-01-23T05:27:06.954Z,100265.75
2023-01-23T05:28:11.879Z,100266.25
2023-01-23T05:29:15.772Z,100267.17
2023-01-23T05:30:26.121Z,100264.46
2023-01-23T05:31:33.316Z,100266.85
2023-01-23T05:32:53.862Z,100266.73
2023-01-23T05:33:57.093Z,100267.80
2023-01-23T05:34:58.991Z,100267.67
2023-01-23T05:36:02.764Z,100269.83
2023-01-23T05:37:04.655Z,100268.08
2023-01-23T05:38:10.319Z,100269.56
2023-01-23T05:39:12.074Z,100275.41
2023-01-23T05:40:13.980Z,100273.79
2023-01-23T05:41:34.574Z,100274.78
2023-01-23T05:43:26.789Z,100275.08
2023-01-23T05:44:54.555Z,100273.58
2023-01-23T05:46:03.906Z,100274.64
2023-01-23T05:47:14.485Z,100276.20
2023-01-23T05:48:16.357Z,100276.51
2023-01-23T05:49:18.575Z,100279.67
2023-01-23T05:50:22.637Z,100278.92
2023-01-23T05:51:31.495Z,100283.58
2023-01-23T05:52:34.979Z,100287.42
2023-01-23T05:53:37.155Z,100289.61
2023-01-23T05:54:39.016Z,100294.98
2023-01-23T05:55:41.191Z,100295.45
2023-01-23T05:56:43.749Z,100299.84
2023-01-23T05:58:26.979Z,100303.02
2023-01-23T05:59:47.252Z,100303.57
2023-01-23T06:01:31.489Z,100301.86
2023-01-23T06:03:06.777Z,100301.42
2023-01-23T06:04:26.148Z,100300.04
2023-01-23T06:05:35.960Z,100305.52
2023-01-23T06:06:44.257Z,100308.42
2023-01-23T06:07:46.401Z,100311.30
2023-01-23T06:08:48.590Z,100316.45
2023-01-23T06:09:50.500Z,100315.93
2023-01-23T06:10:52.431Z,100317.97
2023-01-23T06:11:54.993Z,100318.80
2023-01-23T06:12:56.945Z,100323.58
2023-01-23T06:13:58.765Z,100323.33
2023-01-23T06:15:00.741Z,100324.60
2023-01-23T06:16:02.754Z,100329.68
2023-01-23T06:17:05.266Z,100327.56
2023-01-23T06:18:09.907Z,100334.17
2023-01-23T06:19:13.144Z,100334.92
2023-01-23T06:20:15.746Z,100335.48
2023-01-23T06:21:19.511Z,100337.03
2023-01-23T06:22:22.690Z,100336.39
2023-01-23T06:23:34.443Z,100339.20
2023-01-23T06:24:36.317Z,100338.08
2023-01-23T06:25:39.159Z,100340.23
2023-01-23T06:26:42.771Z,100343.19
2023-01-23T06:27:44.679Z,100343.88
2023-01-23T06:28:47.904Z,100344.22
2023-01-23T06:29:49.820Z,100347.44
2023-01-23T06:30:51.701Z,100347.54
2023-01-23T06:32:02.865Z,100349.14
2023-01-23T06:33:04.665Z,100348.03
2023-01-23T06:34:11.240Z,100352.41
2023-01-23T06:35:18.369Z,100360.61
2023-01-23T06:36:20.465Z,100359.95
2023-01-23T06:37:22.280Z,100364.83
2023-01-23T06:38:24.204Z,100365.65
2023-01-23T06:39:27.111Z,100367.48
2023-01-23T06:40:30.515Z,100367.17
2023-01-23T06:41:42.568Z,100374.75
2023-01-23T06:42:45.078Z,100375.45
2023-01-23T06:43:47.079Z,100377.67
2023-01-23T06:44:52.370Z,100376.23
2023-01-23T06:45:55.158Z,100379.77
2023-01-23T06:46:57.023Z,100382.71
2023-01-23T06:47:59.166Z,100379.48
2023-01-23T06:49:01.557Z,100377.98
2023-01-23T06:50:05.092Z,100379.59
2023-01-23T06:51:11.764Z,100383.02
2023-01-23T06:52:15.052Z,100384.35
2023-01-23T06:53:18.552Z,100387.70
2023-01-23T06:54:20.621Z,100388.10
2023-01-23T06:55:24.322Z,100389.52
2023-01-23T06:56:26.676Z,100391.04
2023-01-23T06:57:28.659Z,100388.64
2023-01-23T06:58:33.671Z,100390.61
2023-01-23T06:59:36.672Z,100393.94
2023-01-23T07:00:41.075Z,100391.92
2023-01-23T07:01:43.694Z,100390.98
2023-01-23T07:02:53.396Z,100391.92
2023-01-23T07:03:55.776Z,100394.13
2023-01-23T07:04:57.887Z,100392.94
2023-01-23T07:06:07.325Z,100397.16
2023-01-23T07:07:09.450Z,100395.84
2023-01-23T07:08:13.668Z,100394.91
2023-01-23T07:09:16.259Z,100398.12
2023-01-23T07:10:23.350Z,100400.22
2023-01-23T07:11:26.184Z,100396.55
2023-01-23T07:12:32.095Z,100396.57
2023-01-23T07:13:34.443Z,100399.47
2023-01-23T07:14:36.505Z,100401.17
2023-01-23T07:15:40.876Z,100402.03
2023-01-23T07:16:43.179Z,100402.54
2023-01-23T07:17:45.120Z,100403.20
2023-01-23T07:18:47.744Z,100401.45
2023-01-23T07:19:50.691Z,100405.13
2023-01-23T07:20:52.860Z,100408.05
2023-01-23T07:21:54.765Z,100406.92
2023-01-23T07:22:58.194Z,100407.86
2023-01-23T07:24:00.117Z,100410.38
2023-01-23T07:25:01.992Z,100408.95
2023-01-23T07:26:09.833Z,100406.48
2023-01-23T07:27:11.793Z,100405.14
2023-01-23T07:28:14.557Z,100411.44
2023-01-23T07:29:16.693Z,100414.65
2023-01-23T07:30:19.380Z,100411.59
2023-01-23T07:31:21.525Z,100410.67
2023-01-23T07:32:23.469Z,100410.09
2023-01-23T07:33:25.773Z,100409.61
2023-01-23T07:34:28.315Z,100411.54
2023-01-23T07:35:30.391Z,100411.34
2023-01-23T07:36:32.282Z,100409.41
2023-01-23T07:37:34.656Z,100410.40
2023-01-23T07:38:36.863Z,100413.86
2023-01-23T07:39:38.642Z,100413.02
2023-01-23T07:40:42.904Z,100413.26
2023-01-23T07:41:46.406Z,100412.13
2023-01-23T07:42:48.812Z,100415.09
2023-01-23T07:43:51.020Z,100415.51
2023-01-23T07:44:53.173Z,100416.98
2023-01-23T07:45:55.277Z,100417.14
2023-01-23T07:46:57.776Z,100419.89
2023-01-23T07:47:59.570Z,100418.52
2023-01-23T07:49:01.790Z,100419.80
2023-01-23T07:50:03.933Z,100420.66
2023-01-23T07:51:06.770Z,100423.86
2023-01-23T07:52:08.813Z,100423.56
2023-01-23T07:53:10.620Z,100422.66
2023-01-23T07:54:12.623Z,100422.61
2023-01-23T07:55:14.665Z,100423.05
2023-01-23T07:56:16.677Z,100420.37
2023-01-23T07:57:18.671Z,100420.27
2023-01-23T07:58:20.591Z,100417.46
2023-01-23T07:59:22.703Z,100416.63
2023-01-23T08:00:27.193Z,100418.40
2023-01-23T08:01:31.388Z,100416.98
2023-01-23T08:02:33.429Z,100416.64
2023-01-23T08:03:35.462Z,100418.23
2023-01-23T08:04:37.744Z,100417.01
2023-01-23T08:05:39.604Z,100418.45
2023-01-23T08:06:41.456Z,100425.04
2023-01-23T08:07:43.448Z,100425.99
2023-01-23T08:08:48.214Z,100426.98
2023-01-23T08:09:50.253Z,100431.58
2023-01-23T08:10:52.215Z,100430.05
2023-01-23T08:11:54.430Z,100433.73
2023-01-23T08:12:56.375Z,100434.98
2023-01-23T08:13:58.331Z,100437.23
2023-01-23T08:15:00.532Z,100439.98
2023-01-23T08:16:02.830Z,100437.33
2023-01-23T08:17:05.516Z,100432.62
2023-01-23T08:18:07.825Z,100433.48
2023-01-23T08:19:09.655Z,100427.20
2023-01-23T08:20:11.930Z,100428.77
2023-01-23T08:21:14.044Z,100429.67
2023-01-23T08:22:15.964Z,100427.65
2023-01-23T08:23:17.876Z,100428.21
2023-01-23T08:24:22.262Z,100431.60
2023-01-23T08:25:24.540Z,100432.84
2023-01-23T08:26:26.606Z,100431.32
2023-01-23T08:27:28.818Z,100434.08
2023-01-23T08:28:31.651Z,100430.12
2023-01-23T08:29:33.779Z,100431.89
2023-01-23T08:30:36.351Z,100435.05
2023-01-23T08:31:39.849Z,100436.52
2023-01-23T08:32:42.690Z,100436.83
2023-01-23T08:33:45.287Z,100440.36
2023-01-23T08:34:47.512Z,100437.30
2023-01-23T08:35:51.916Z,100442.05
2023-01-23T08:36:54.546Z,100438.46
2023-01-23T08:37:56.900Z,100439.16
2023-01-23T08:39:00.207Z,100439.20
2023-01-23T08:40:02.715Z,100442.73
2023-01-23T08:41:05.496Z,100443.33
2023-01-23T08:42:08.361Z,100444.41
2023-01-23T08:43:12.440Z,100444.35
2023-01-23T08:44:14.957Z,100443.65
2023-01-23T08:45:17.272Z,100445.11
2023-01-23T08:46:19.604Z,100443.92
2023-01-23T08:47:22.122Z,100445.09
2023-01-23T08:48:26.299Z,100442.17
2023-01-23T08:49:28.549Z,100450.86
2023-01-23T08:50:30.755Z,100449.34
2023-01-23T08:51:32.846Z,100449.69
2023-01-23T08:52:35.616Z,100449.66
2023-01-23T08:53:38.297Z,100450.23
2023-01-23T08:54:40.600Z,100448.00
2023-01-23T08:55:42.747Z,100450.06
2023-01-23T08:56:44.964Z,100448.67
2023-01-23T08:57:46.955Z,100448.78
2023-01-23T08:58:49.610Z,100451.75
2023-01-23T08:59:51.696Z,100451.36
2023-01-23T09:00:53.896Z,100455.17
2023-01-23T09:01:55.882Z,100455.37
2023-01-23T09:03:03.353Z,100455.63
2023-01-23T09:04:05.414Z,100455.56
2023-01-23T09:05:08.499Z,100453.61
2023-01-23T09:06:12.634Z,100450.26
2023-01-23T09:07:14.906Z,100449.45
2023-01-23T09:08:16.971Z,100448.61
2023-01-23T09:09:18.892Z,100452.60
2023-01-23T09:10:21.274Z,100452.89
2023-01-23T09:11:23.997Z,100453.23
2023-01-23T09:12:25.897Z,100453.02
2023-01-23T09:13:28.149Z,100454.63
2023-01-23T09:14:29.985Z,100457.52
2023-01-23T09:15:32.639Z,100457.62
2023-01-23T09:16:34.574Z,100458.79
2023-01-23T09:17:36.695Z,100458.83
2023-01-23T09:18:38.793Z,100459.21
2023-01-23T09:19:40.669Z,100463.92
2023-01-23T09:20:42.619Z,100463.91
2023-01-23T09:21:44.631Z,100466.67
2023-01-23T09:22:46.843Z,100466.14
2023-01-23T09:23:48.760Z,100471.20
2023-01-23T09:24:51.251Z,100468.83
2023-01-23T09:25:53.555Z,100469.63
2023-01-23T09:26:55.466Z,100470.52
2023-01-23T09:27:57.488Z,100467.75
2023-01-23T09:28:59.287Z,100468.60
2023-01-23T09:30:01.426Z,100468.19
2023-01-23T09:31:08.668Z,100468.14
2023-01-23T09:32:10.707Z,100467.58
2023-01-23T09:33:12.552Z,100467.70
2023-01-23T09:34:16.908Z,100464.42
2023-01-23T09:35:19.819Z,100464.73
2023-01-23T09:36:33.708Z,100464.62
2023-01-23T09:38:01.589Z,100461.70
2023-01-23T09:39:03.883Z,100462.20
2023-01-23T09:40:06.341Z,100464.09
2023-01-23T09:41:16.563Z,100468.08
2023-01-23T09:42:25.786Z,100470.95
2023-01-23T09:44:07.561Z,100469.59
2023-01-23T09:45:16.092Z,100470.11
2023-01-23T09:46:39.680Z,100470.75
2023-01-23T09:47:53.860Z,100470.73
2023-01-23T09:49:19.616Z,100468.96
2023-01-23T09:50:33.479Z,100470.42
2023-01-23T09:51:38.351Z,100468.91
2023-01-23T09:52:54.311Z,100472.40
2023-01-23T09:54:04.944Z,100475.27
2023-01-23T09:55:25.595Z,100477.05
2023-01-23T09:56:36.627Z,100478.72
2023-01-23T09:58:01.226Z,100474.10
2023-01-23T09:59:22.513Z,100480.02
2023-01-23T10:00:30.033Z,100477.62
2023-01-23T10:01:32.843Z,100473.65
2023-01-23T10:02:34.846Z,100468.20
2023-01-23T10:03:37.851Z,100472.02
2023-01-23T10:04:39.832Z,100471.19
2023-01-23T10:06:13.579Z,100469.61
2023-01-23T10:07:22.433Z,100468.27
2023-01-23T10:08:39.809Z,100469.20
2023-01-23T10:10:15.693Z,100469.54
2023-01-23T10:11:25.663Z,100472.27
2023-01-23T10:12:49.748Z,100470.81
2023-01-23T10:14:30.427Z,100470.73
2023-01-23T10:16:11.983Z,100466.83
2023-01-23T10:17:13.909Z,100466.16
2023-01-23T10:18:21.542Z,100464.00
2023-01-23T10:19:42.231Z,100467.70
2023-01-23T10:20:54.996Z,100463.99
2023-01-23T10:22:08.543Z,100466.79
2023-01-23T10:23:36.674Z,100463.98
2023-01-23T10:24:49.894Z,100465.01
2023-01-23T10:25:51.835Z,100466.41
2023-01-23T10:27:01.589Z,100462.48
2023-01-23T10:28:29.821Z,100463.27
2023-01-23T10:29:36.948Z,100462.30
2023-01-23T10:30:42.081Z,100466.99
2023-01-23T10:31:51.496Z,100468.33
2023-01-23T10:33:02.983Z,100468.33
2023-01-23T10:34:11.286Z,100467.44
2023-01-23T10:35:24.217Z,100467.63
2023-01-23T10:36:47.624Z,100469.34
2023-01-23T10:38:02.730Z,100471.50
2023-01-23T10:39:16.500Z,100470.45
2023-01-23T10:40:42.843Z,100471.80
2023-01-23T10:41:51.122Z,100471.33
2023-01-23T10:42:53.194Z,100469.67
2023-01-23T10:43:57.363Z,100469.98
2023-01-23T10:44:59.588Z,100474.69
2023-01-23T10:46:02.870Z,100466.14
2023-01-23T10:47:20.048Z,100469.14
2023-01-23T10:48:33.798Z,100466.61
2023-01-23T10:49:43.173Z,100464.71
2023-01-23T10:50:45.113Z,100463.70
2023-01-23T10:51:47.922Z,100463.05
2023-01-23T10:52:49.775Z,100462.27
2023-01-23T10:54:33.100Z,100461.19
2023-01-23T10:55:35.394Z,100458.69
2023-01-23T10:56:47.890Z,100458.36
2023-01-23T10:57:54.872Z,100455.95
2023-01-23T10:58:59.953Z,100452.94
2023-01-23T11:00:26.385Z,100453.34
2023-01-23T11:01:32.991Z,100452.14
2023-01-23T11:02:39.312Z,100450.11
2023-01-23T11:03:45.533Z,100445.75
2023-01-23T11:04:51.822Z,100444.30
2023-01-23T11:05:57.374Z,100443.81
2023-01-23T11:07:12.889Z,100441.01
2023-01-23T11:08:32.358Z,100440.67
2023-01-23T11:10:05.695Z,100442.95
2023-01-23T11:11:23.081Z,100443.63
2023-01-23T11:12:28.374Z,100443.13
2023-01-23T11:13:31.399Z,100442.58
2023-01-23T11:14:33.576Z,100440.95
2023-01-23T11:15:42.612Z,100440.02
2023-01-23T11:16:44.704Z,100439.60
2023-01-23T11:17:47.871Z,100438.43
2023-01-23T11:18:56.188Z,100439.47
2023-01-23T11:19:59.843Z,100438.90
2023-01-23T11:21:02.002Z,100438.52
2023-01-23T11:22:05.518Z,100440.71
2023-01-23T11:23:13.493Z,100440.41
2023-01-23T11:24:41.608Z,100438.68
2023-01-23T11:25:49.387Z,100440.28
2023-01-23T11:27:14.768Z,100443.38
2023-01-23T11:28:36.528Z,100437.45
2023-01-23T11:29:56.924Z,100436.71
2023-01-23T11:31:19.486Z,100432.30
2023-01-23T11:32:24.416Z,100433.84
2023-01-23T11:33:26.347Z,100432.83
2023-01-23T11:34:38.599Z,100437.89
2023-01-23T11:35:43.415Z,100440.02
2023-01-23T11:37:14.326Z,100438.79
2023-01-23T11:38:30.316Z,100438.05
2023-01-23T11:40:13.272Z,100434.86
2023-01-23T11:41:15.245Z,100441.68
2023-01-23T11:42:18.563Z,100439.65
2023-01-23T11:43:20.685Z,100444.10
2023-01-23T11:44:24.392Z,100443.31
2023-01-23T11:46:03.711Z,100446.23
2023-01-23T11:47:13.532Z,100444.95
2023-01-23T11:48:43.616Z,100445.84
2023-01-23T11:50:00.496Z,100440.09
2023-01-23T11:51:21.584Z,100440.91
2023-01-23T11:52:38.670Z,100441.41
2023-01-23T11:53:49.871Z,100437.79
2023-01-23T11:55:20.450Z,100438.69
2023-01-23T11:57:02.050Z,100440.69
2023-01-23T11:58:32.097Z,100440.21
2023-01-23T11:59:49.784Z,100439.77
2023-01-23T12:01:08.176Z,100439.29
2023-01-23T12:02:27.555Z,100433.52
2023-01-23T12:03:50.468Z,100435.86
2023-01-23T12:05:19.327Z,100430.97
2023-01-23T12:06:42.917Z,100426.96
2023-01-23T12:08:20.132Z,100426.48
2023-01-23T12:09:23.407Z,100428.38
2023-01-23T12:10:51.528Z,100424.75
2023-01-23T12:12:39.799Z,100427.52
2023-01-23T12:14:08.711Z,100428.41
2023-01-23T12:15:32.668Z,100428.57
2023-01-23T12:17:09.115Z,100426.73
2023-01-23T12:18:36.229Z,100426.34
2023-01-23T12:20:00.674Z,100427.08
2023-01-23T12:21:11.213Z,100425.94
2023-01-23T12:22:22.464Z,100422.02
2023-01-23T12:23:45.684Z,100420.73
2023-01-23T12:25:05.511Z,100421.62
2023-01-23T12:26:20.885Z,100420.17
2023-01-23T12:28:04.376Z,100420.48
2023-01-23T12:29:30.848Z,100418.61
2023-01-23T12:30:58.139Z,100417.52
2023-01-23T12:32:40.367Z,100419.98
2023-01-23T12:33:55.609Z,100424.77
2023-01-23T12:35:05.272Z,100426.86
2023-01-23T12:36:19.790Z,100427.98
2023-01-23T12:38:02.743Z,100428.44
2023-01-23T12:39:21.499Z,100426.77
2023-01-23T12:40:43.282Z,100428.96
2023-01-23T12:41:54.064Z,100429.16
2023-01-23T12:43:19.986Z,100424.11
2023-01-23T12:44:30.257Z,100425.40
2023-01-23T12:45:33.677Z,100428.34